HTMW

Mwanza Airport

Mwanza, Tanzania
METAR HTMW 181300Z 27010KT 9999 FEW022 FEW023CB BKN120 23/21 Q1015 NOSIG
Observed Flight Rules
Jan-18 @ 13:00 UTC (47 minutes ago) Visual Flight Rules
Wind Visibility Clouds
270° at 10 knots 10,000+ meters
  • Few at 2,200' AGL
  • Few at 2,300' AGL
  • Broken at 12,000' AGL
Temperatures Readings
Current 23°C / 73°F
Dewpoint 21°C / 70°F
Humidity 89%
Altimeter 29.97" Hg
Pressure 1014.92 hPa
Elevation 1140
METAR HTMW 181300Z 27010KT 9999 FEW022 FEW023CB BKN120 23/21 Q1015 NOSIG
Observed Flight Rules
Jan-18 @ 13:00 UTC
(47 minutes ago)
VFR
Wind Visibility
270° at 10 knots 10,000+ meters
Clouds
  • Few at 2,200' AGL
  • Few at 2,300' AGL
  • Broken at 12,000' AGL
Temperature Dewpoint
23°C / 73°F 21°C / 70°F
Humidity Altimeter Pressure
89% 29.97" Hg 1014.92 hPa